Time;durP1;ratioP1;P1;durP2;ratioP2;P2;SDS_P1;SDS_P2;PMS_P1;PMS_P2;Temp;Humidity;BMP_temperature;BMP_pressure;BME280_temperature;BME280_humidity;BME280_pressure;Samples;Min_cycle;Max_cycle;Signal;HPM_P1;HPM_P2
2024/01/25 00:01:54;;;;;;;;;;;;;;;26.22;39.86;95507.28;5060023;28;7259;-36
2024/01/25 00:04:21;;;;;;;;;;;;;;;26.21;40.07;95507.78;4989270;28;7302;-36
2024/01/25 00:06:48;;;;;;;;;;;;;;;26.21;39.47;95496.75;5008207;28;7733;-36
2024/01/25 00:09:42;;;;;;;;;;;;;;;26.21;39.61;95499.50;4996468;28;7357;-36
2024/01/25 00:12:24;;;;;;;;;;;;;;;26.22;39.46;95485.22;4995417;28;6998;-38
2024/01/25 00:15:00;;;;;;;;;;;;;;;26.22;39.36;95484.47;4997555;28;7328;-39
2024/01/25 00:17:36;;;;;;;;;;;;;;;26.22;39.66;95481.69;5014184;28;7212;-39
2024/01/25 00:20:12;;;;;;;;;;;;;;;26.20;39.93;95484.97;4998220;28;8358;-39
2024/01/25 00:22:49;;;;;;;;;;;;;;;26.16;39.58;95479.66;4990982;28;7003;-40
2024/01/25 00:25:15;;;;;;;;;;;;;;;26.18;39.48;95484.69;4999270;28;7488;-38
2024/01/25 00:27:44;;;;;;;;;;;;;;;26.20;39.80;95481.44;5012044;28;7184;-39
2024/01/25 00:30:22;;;;;;;;;;;;;;;26.18;39.87;95479.19;4994694;28;7266;-40
2024/01/25 00:32:49;;;;;;;;;;;;;;;26.16;39.25;95479.66;4990646;28;7283;-38
2024/01/25 00:35:16;;;;;;;;;;;;;;;26.19;39.54;95488.22;5010464;28;9080;-39
2024/01/25 00:37:46;;;;;;;;;;;;;;;26.19;39.31;95490.97;5010830;28;8466;-38
2024/01/25 00:40:18;;;;;;;;;;;;;;;26.17;39.77;95478.41;5017847;28;7091;-39
2024/01/25 00:42:52;;;;;;;;;;;;;;;26.19;40.25;95472.41;5036679;28;7562;-39
2024/01/25 00:45:29;;;;;;;;;;;;;;;26.17;39.79;95469.38;5044504;28;7362;-39
2024/01/25 00:47:55;;;;;;;;;;;;;;;26.14;39.93;95471.09;5047179;28;7222;-39
2024/01/25 00:50:23;;;;;;;;;;;;;;;26.16;39.08;95465.84;5042338;28;7281;-39
2024/01/25 00:52:50;;;;;;;;;;;;;;;26.11;39.48;95474.09;5029325;28;7356;-39
2024/01/25 00:55:16;;;;;;;;;;;;;;;26.12;39.74;95470.84;5051421;28;7233;-38
2024/01/25 00:58:09;;;;;;;;;;;;;;;26.13;39.31;95472.38;5036276;28;6980;-39
2024/01/25 01:01:12;;;;;;;;;;;;;;;26.11;39.96;95472.09;5051606;28;7037;-39
2024/01/25 01:04:32;;;;;;;;;;;;;;;26.15;39.76;95472.63;4977865;28;7170;-39
2024/01/25 01:07:08;;;;;;;;;;;;;;;26.13;39.24;95477.13;4958510;28;7537;-39
2024/01/25 01:09:50;;;;;;;;;;;;;;;26.13;39.79;95464.09;4975114;28;7459;-39
2024/01/25 01:13:02;;;;;;;;;;;;;;;26.15;39.62;95469.09;4994108;28;7091;-38
2024/01/25 01:15:38;;;;;;;;;;;;;;;26.12;39.31;95470.84;4898580;29;7465;-39
2024/01/25 01:18:05;;;;;;;;;;;;;;;26.11;39.73;95472.09;4907539;29;6986;-38
2024/01/25 01:20:41;;;;;;;;;;;;;;;26.14;39.64;95473.88;4911068;29;7559;-39
2024/01/25 01:23:27;;;;;;;;;;;;;;;26.12;39.31;95470.09;4909084;29;7064;-39
2024/01/25 01:25:55;;;;;;;;;;;;;;;26.13;39.65;95471.59;4912393;29;7240;-39
2024/01/25 01:28:36;;;;;;;;;;;;;;;26.11;39.09;95461.06;4902400;29;9111;-38
2024/01/25 01:31:04;;;;;;;;;;;;;;;26.14;39.64;95478.66;4921997;29;8818;-42
2024/01/25 01:33:32;;;;;;;;;;;;;;;26.14;39.70;95470.38;4916343;29;7255;-43
2024/01/25 01:36:16;;;;;;;;;;;;;;;26.13;39.63;95458.56;4924624;29;7043;-42
2024/01/25 01:38:59;;;;;;;;;;;;;;;26.09;39.38;95451.78;4921755;28;6973;-42
2024/01/25 01:41:25;;;;;;;;;;;;;;;26.11;39.68;95452.78;4951496;28;7873;-43
2024/01/25 01:43:59;;;;;;;;;;;;;;;26.13;39.42;95457.81;4978769;28;8835;-42
2024/01/25 01:47:04;;;;;;;;;;;;;;;26.14;39.22;95456.59;4975951;28;6984;-42
2024/01/25 01:49:30;;;;;;;;;;;;;;;26.14;39.72;95449.03;4994050;28;8712;-42
2024/01/25 01:51:56;;;;;;;;;;;;;;;26.15;39.04;95452.56;5016821;28;7183;-42
2024/01/25 01:54:24;;;;;;;;;;;;;;;26.15;39.16;95447.06;5058489;28;7213;-42
2024/01/25 01:56:55;;;;;;;;;;;;;;;26.16;39.15;95451.34;5043648;28;6971;-44
2024/01/25 01:59:33;;;;;;;;;;;;;;;26.12;39.09;95443.25;5035917;28;6992;-42
2024/01/25 02:02:07;;;;;;;;;;;;;;;26.11;39.60;95447.28;5046193;28;7321;-43
2024/01/25 02:05:10;;;;;;;;;;;;;;;26.15;39.52;95442.31;5043268;28;9433;-42
2024/01/25 02:07:40;;;;;;;;;;;;;;;26.15;39.72;95434.03;5047169;28;8780;-42
2024/01/25 02:10:07;;;;;;;;;;;;;;;26.16;39.11;95434.78;5041286;28;9064;-42
2024/01/25 02:12:33;;;;;;;;;;;;;;;26.13;39.61;95425.50;5049868;28;7219;-42
2024/01/25 02:15:18;;;;;;;;;;;;;;;26.16;39.75;95421.75;5049081;28;7246;-43
2024/01/25 02:17:51;;;;;;;;;;;;;;;26.14;39.86;95429.75;5050848;28;9073;-43
2024/01/25 02:20:18;;;;;;;;;;;;;;;26.14;39.48;95429.75;5042591;28;9561;-42
2024/01/25 02:22:46;;;;;;;;;;;;;;;26.13;39.04;95422.72;5032919;28;7045;-42
2024/01/25 02:25:12;;;;;;;;;;;;;;;26.15;39.42;95425.00;5036121;28;7183;-42
2024/01/25 02:27:43;;;;;;;;;;;;;;;26.14;39.07;95415.97;5035600;28;7277;-42
2024/01/25 02:30:09;;;;;;;;;;;;;;;26.16;39.49;95423.75;5040484;28;9067;-41
2024/01/25 02:32:37;;;;;;;;;;;;;;;26.13;39.21;95411.69;5038379;28;7001;-42
2024/01/25 02:35:13;;;;;;;;;;;;;;;26.17;39.30;95406.72;5049343;28;7314;-43
2024/01/25 02:37:41;;;;;;;;;;;;;;;26.13;39.04;95403.44;5053177;28;7157;-42
2024/01/25 02:40:13;;;;;;;;;;;;;;;26.16;39.32;95399.69;5042618;28;7264;-56
2024/01/25 02:42:38;;;;;;;;;;;;;;;26.15;39.11;95398.19;5033716;28;7122;-56
2024/01/25 02:45:05;;;;;;;;;;;;;;;26.12;39.29;95393.63;5033952;28;7249;-56
2024/01/25 02:47:31;;;;;;;;;;;;;;;26.16;39.54;95407.94;5048329;28;7242;-56
2024/01/25 02:49:59;;;;;;;;;;;;;;;26.12;39.39;95396.41;5036098;28;7076;-56
2024/01/25 02:52:25;;;;;;;;;;;;;;;26.14;39.34;95396.66;5042573;28;7141;-56
2024/01/25 02:54:51;;;;;;;;;;;;;;;26.14;39.47;95402.16;5048799;28;6948;-56
2024/01/25 02:57:18;;;;;;;;;;;;;;;26.14;38.86;95396.66;5037930;28;7164;-56
2024/01/25 02:59:44;;;;;;;;;;;;;;;26.14;38.95;95398.69;5045913;28;7271;-56
2024/01/25 03:02:10;;;;;;;;;;;;;;;26.13;39.03;95388.88;5050660;28;7768;-56
2024/01/25 03:04:55;;;;;;;;;;;;;;;26.11;39.41;95388.63;5047811;28;7410;-57
2024/01/25 03:07:28;;;;;;;;;;;;;;;26.12;39.64;95388.13;5051291;28;7958;-57
2024/01/25 03:09:59;;;;;;;;;;;;;;;26.11;39.46;95375.59;5052363;28;7319;-56
2024/01/25 03:12:41;;;;;;;;;;;;;;;26.12;39.58;95379.84;5050129;28;7234;-56
2024/01/25 03:15:22;;;;;;;;;;;;;;;26.11;39.32;95375.59;5046172;28;7268;-57
2024/01/25 03:17:49;;;;;;;;;;;;;;;26.10;39.50;95381.59;5046715;28;9272;-56
2024/01/25 03:20:19;;;;;;;;;;;;;;;26.12;39.32;95381.88;5040158;28;9063;-57
2024/01/25 03:23:10;;;;;;;;;;;;;;;26.13;39.25;95377.84;5032862;28;7251;-57
2024/01/25 03:25:45;;;;;;;;;;;;;;;26.11;38.87;95375.59;5033476;28;7053;-57
2024/01/25 03:28:22;;;;;;;;;;;;;;;26.12;39.25;95377.09;5046449;28;8697;-57
2024/01/25 03:30:50;;;;;;;;;;;;;;;26.10;39.45;95368.56;5041269;28;7013;-57
2024/01/25 03:33:32;;;;;;;;;;;;;;;26.11;39.50;95370.09;5062254;28;7248;-57
2024/01/25 03:36:08;;;;;;;;;;;;;;;26.08;39.44;95368.28;5053056;28;7528;-57
2024/01/25 03:39:00;;;;;;;;;;;;;;;26.10;39.46;95370.56;5045308;28;7069;-57
2024/01/25 03:41:42;;;;;;;;;;;;;;;26.09;39.56;95371.81;5043356;28;7513;-56
2024/01/25 03:44:29;;;;;;;;;;;;;;;26.11;39.48;95381.09;5059936;28;7074;-56
2024/01/25 03:47:00;;;;;;;;;;;;;;;26.11;38.71;95374.84;5052821;28;7012;-57
2024/01/25 03:49:30;;;;;;;;;;;;;;;26.11;39.29;95383.09;5051569;28;8424;-56
2024/01/25 03:51:56;;;;;;;;;;;;;;;26.10;39.56;95390.63;5048918;28;7200;-42
2024/01/25 03:54:22;;;;;;;;;;;;;;;26.11;38.97;95383.09;5043999;28;7150;-42
2024/01/25 03:56:54;;;;;;;;;;;;;;;26.11;39.16;95383.88;5046186;28;6959;-42
2024/01/25 03:59:20;;;;;;;;;;;;;;;26.12;39.55;95376.34;5051036;28;7483;-42
2024/01/25 04:01:47;;;;;;;;;;;;;;;26.12;39.25;95377.09;5041854;28;7057;-43
2024/01/25 04:04:15;;;;;;;;;;;;;;;26.11;39.53;95372.06;5052076;28;9099;-42
2024/01/25 04:06:45;;;;;;;;;;;;;;;26.10;39.36;95387.84;5041536;28;8903;-43
2024/01/25 04:09:13;;;;;;;;;;;;;;;26.12;38.72;95392.91;5044679;28;7250;-42
2024/01/25 04:11:39;;;;;;;;;;;;;;;26.09;39.33;95383.59;5046637;28;7561;-41
2024/01/25 04:14:06;;;;;;;;;;;;;;;26.12;38.91;95395.66;5048718;28;7308;-42
2024/01/25 04:16:33;;;;;;;;;;;;;;;26.13;39.16;95397.91;5047288;28;7221;-42
2024/01/25 04:19:05;;;;;;;;;;;;;;;26.13;39.01;95399.91;5041186;28;7442;-42
2024/01/25 04:21:34;;;;;;;;;;;;;;;26.11;38.88;95396.88;5040641;28;7532;-42
2024/01/25 04:24:01;;;;;;;;;;;;;;;26.12;38.99;95396.41;5040269;28;7274;-42
2024/01/25 04:26:27;;;;;;;;;;;;;;;26.12;38.83;95396.41;5048454;28;7282;-42
2024/01/25 04:28:53;;;;;;;;;;;;;;;26.13;39.33;95400.69;5033836;28;7475;-42
2024/01/25 04:31:21;;;;;;;;;;;;;;;26.11;39.29;95403.16;5041150;28;7226;-43
2024/01/25 04:33:49;;;;;;;;;;;;;;;26.11;38.96;95403.16;5043400;28;7364;-42
2024/01/25 04:36:19;;;;;;;;;;;;;;;26.09;38.64;95402.91;5040693;28;9033;-43
2024/01/25 04:38:47;;;;;;;;;;;;;;;26.10;39.18;95417.41;5035005;28;6960;-42
2024/01/25 04:41:16;;;;;;;;;;;;;;;26.10;39.25;95406.41;5044613;28;7243;-41
2024/01/25 04:43:49;;;;;;;;;;;;;;;26.12;39.27;95399.16;5047298;28;7826;-42
2024/01/25 04:46:34;;;;;;;;;;;;;;;26.13;39.17;95411.69;5044563;28;9071;-42
2024/01/25 04:49:01;;;;;;;;;;;;;;;26.16;38.90;95409.97;5040239;28;7273;-42
2024/01/25 04:51:27;;;;;;;;;;;;;;;26.16;38.77;95405.19;5040561;28;9166;-42
2024/01/25 04:53:53;;;;;;;;;;;;;;;26.21;38.55;95419.53;5041536;28;6899;-42
2024/01/25 04:56:21;;;;;;;;;;;;;;;26.20;38.76;95420.78;5047632;28;8924;-42
2024/01/25 04:58:52;;;;;;;;;;;;;;;26.22;38.98;95424.56;5037695;28;9380;-43
2024/01/25 05:01:22;;;;;;;;;;;;;;;26.20;38.66;95427.03;5042111;28;6996;-56
2024/01/25 05:03:59;;;;;;;;;;;;;;;26.22;38.68;95430.06;5039636;28;7262;-56
2024/01/25 05:06:26;;;;;;;;;;;;;;;26.24;38.45;95437.84;5051258;28;6990;-55
2024/01/25 05:08:57;;;;;;;;;;;;;;;26.25;38.95;95428.34;5045781;28;7074;-56
2024/01/25 05:11:31;;;;;;;;;;;;;;;26.25;39.03;95433.84;5061104;28;8207;-56
2024/01/25 05:14:08;;;;;;;;;;;;;;;26.28;38.29;95432.84;5050929;28;7236;-56
2024/01/25 05:16:45;;;;;;;;;;;;;;;26.28;39.13;95430.09;5053627;28;7062;-56
2024/01/25 05:19:12;;;;;;;;;;;;;;;26.25;38.44;95431.84;5050305;28;9439;-56
2024/01/25 05:21:42;;;;;;;;;;;;;;;26.27;38.39;95425.84;5038560;28;9551;-56
2024/01/25 05:24:24;;;;;;;;;;;;;;;26.29;38.69;95415.06;5040348;28;7486;-56
2024/01/25 05:26:52;;;;;;;;;;;;;;;26.26;39.18;95418.81;5053404;28;7245;-56
2024/01/25 05:29:25;;;;;;;;;;;;;;;26.26;38.39;95414.03;5051820;28;6993;-56
2024/01/25 05:32:11;;;;;;;;;;;;;;;26.29;38.24;95415.06;5034048;28;7359;-56
2024/01/25 05:34:42;;;;;;;;;;;;;;;26.27;39.10;95412.81;5050526;28;9072;-55
2024/01/25 05:37:19;;;;;;;;;;;;;;;26.27;38.24;95407.31;5034401;28;7275;-56
2024/01/25 05:40:05;;;;;;;;;;;;;;;26.28;38.46;95411.56;5040297;28;8810;-55
2024/01/25 05:43:00;;;;;;;;;;;;;;;26.29;38.28;95412.31;5037656;28;7730;-56
2024/01/25 05:45:27;;;;;;;;;;;;;;;26.28;38.45;95416.31;5061446;28;8293;-55
2024/01/25 05:47:59;;;;;;;;;;;;;;;26.26;38.00;95422.31;5042424;28;7227;-55
2024/01/25 05:50:27;;;;;;;;;;;;;;;26.27;39.08;95426.59;5042428;28;7050;-56
2024/01/25 05:52:53;;;;;;;;;;;;;;;26.27;38.67;95425.84;5062894;28;9039;-55
2024/01/25 05:55:19;;;;;;;;;;;;;;;26.27;39.17;95437.63;5042666;28;7014;-55
2024/01/25 05:57:51;;;;;;;;;;;;;;;26.31;38.71;95423.59;5033364;28;7188;-56
2024/01/25 06:00:31;;;;;;;;;;;;;;;26.30;40.32;95417.34;5039839;28;7868;-55
2024/01/25 06:03:02;;;;;;;;;;;;;;;26.31;39.80;95424.38;5047831;28;7404;-38
2024/01/25 06:05:32;;;;;;;;;;;;;;;26.33;39.07;95429.38;5045034;28;7247;-38
2024/01/25 06:08:09;;;;;;;;;;;;;;;26.32;39.44;95436.16;5025419;28;7325;-37
2024/01/25 06:10:35;;;;;;;;;;;;;;;26.31;40.31;95427.13;5047804;28;7244;-38
2024/01/25 06:13:01;;;;;;;;;;;;;;;26.31;40.07;95442.91;5047283;28;8853;-38
2024/01/25 06:15:27;;;;;;;;;;;;;;;26.32;40.22;95436.16;5036953;28;7873;-38
2024/01/25 06:17:53;;;;;;;;;;;;;;;26.34;39.53;95436.44;5037085;28;9088;-38
2024/01/25 06:20:27;;;;;;;;;;;;;;;26.33;39.89;95441.19;5047706;28;7513;-38
2024/01/25 06:23:05;;;;;;;;;;;;;;;26.34;39.75;95441.94;5042336;28;7243;-38
2024/01/25 06:25:31;;;;;;;;;;;;;;;26.37;39.81;95446.47;5049119;28;7238;-38
2024/01/25 06:28:18;;;;;;;;;;;;;;;26.35;40.23;95437.94;5036070;28;7146;-37
2024/01/25 06:30:51;;;;;;;;;;;;;;;26.33;39.63;95440.41;5035199;28;6976;-38
2024/01/25 06:33:19;;;;;;;;;;;;;;;26.34;40.00;95448.19;5049634;28;7259;-38
2024/01/25 06:35:45;;;;;;;;;;;;;;;26.32;39.71;95447.19;5038662;28;6986;-38
2024/01/25 06:38:11;;;;;;;;;;;;;;;26.34;39.10;95452.97;5049520;28;7153;-38
2024/01/25 06:40:51;;;;;;;;;;;;;;;26.34;39.69;95455.75;5038618;28;9330;-38
2024/01/25 06:43:44;;;;;;;;;;;;;;;26.35;39.11;95454.47;5039455;28;7157;-38
2024/01/25 06:46:10;;;;;;;;;;;;;;;26.32;39.56;95456.22;5025775;28;7944;-38
2024/01/25 06:48:38;;;;;;;;;;;;;;;26.32;39.08;95456.22;5019223;28;9448;-38
2024/01/25 06:51:04;;;;;;;;;;;;;;;26.33;39.05;95460.50;5017317;28;7253;-38
2024/01/25 06:53:30;;;;;;;;;;;;;;;26.32;39.55;95463.75;5010629;28;7230;-38
2024/01/25 06:55:59;;;;;;;;;;;;;;;26.31;39.57;95467.75;5012753;28;7699;-38
2024/01/25 06:58:40;;;;;;;;;;;;;;;26.27;39.38;95465.22;5002539;28;6977;-38
2024/01/25 07:01:20;;;;;;;;;;;;;;;26.27;39.80;95467.22;5002125;28;9285;-38
2024/01/25 07:03:58;;;;;;;;;;;;;;;26.27;39.27;95464.44;5026229;28;9035;-38
2024/01/25 07:06:36;;;;;;;;;;;;;;;26.26;39.84;95468.44;5015351;28;7243;-38
2024/01/25 07:09:02;;;;;;;;;;;;;;;26.24;39.57;95468.94;5002602;28;7270;-38
2024/01/25 07:11:43;;;;;;;;;;;;;;;26.23;39.78;95469.44;5005989;28;7252;-37
2024/01/25 07:14:11;;;;;;;;;;;;;;;26.26;39.31;95469.22;5028847;28;7435;-37
2024/01/25 07:17:22;;;;;;;;;;;;;;;26.24;39.00;95470.94;5009849;28;7988;-37
2024/01/25 07:23:12;;;;;;;;;;;;;;;26.20;39.42;95465.66;4939791;28;6856;-37
2024/01/25 07:25:40;;;;;;;;;;;;;;;26.20;39.86;95468.41;4951449;28;7401;-37
2024/01/25 07:28:10;;;;;;;;;;;;;;;26.19;39.37;95471.66;4973371;28;7208;-37
2024/01/25 07:30:46;;;;;;;;;;;;;;;26.19;39.48;95477.19;4973906;28;7281;-37
2024/01/25 07:33:22;;;;;;;;;;;;;;;26.20;39.23;95476.69;4967655;28;8460;-37
2024/01/25 07:35:49;;;;;;;;;;;;;;;26.21;39.18;95483.69;4941366;28;9092;-37
2024/01/25 07:38:48;;;;;;;;;;;;;;;26.21;39.14;95480.94;4968403;28;6911;-37
2024/01/25 07:41:16;;;;;;;;;;;;;;;26.19;39.70;95485.44;4921345;29;7242;-37
2024/01/25 07:44:40;;;;;;;;;;;;;;;26.20;40.10;95481.44;4917763;29;6994;-37
2024/01/25 07:47:15;;;;;;;;;;;;;;;26.20;40.02;95482.19;4937602;29;9367;-37
2024/01/25 07:49:41;;;;;;;;;;;;;;;26.18;39.25;95479.19;4924991;29;7966;-37
2024/01/25 07:52:07;;;;;;;;;;;;;;;26.19;39.67;95480.66;4929433;28;7010;-37
2024/01/25 07:54:32;;;;;;;;;;;;;;;26.15;39.27;95480.13;4928731;29;7963;-37
2024/01/25 07:57:23;;;;;;;;;;;;;;;26.19;39.78;95485.44;4955293;28;11025;-37
2024/01/25 08:00:36;;;;;;;;;;;;;;;26.18;39.85;95484.69;5005177;28;7050;-37
2024/01/25 08:03:16;;;;;;;;;;;;;;;26.19;39.84;95488.22;4978602;28;7363;-37
2024/01/25 08:06:02;;;;;;;;;;;;;;;26.19;39.86;95490.97;4989059;28;9135;-37
2024/01/25 08:08:28;;;;;;;;;;;;;;;26.19;40.10;95479.94;4981848;28;9093;-37
2024/01/25 08:11:05;;;;;;;;;;;;;;;26.19;39.91;95482.69;4974988;28;7558;-37
2024/01/25 08:13:42;;;;;;;;;;;;;;;26.12;40.12;95479.13;4982533;28;9225;-37
2024/01/25 08:16:13;;;;;;;;;;;;;;;26.16;40.09;95485.16;4986160;28;7139;-37
2024/01/25 08:18:48;;;;;;;;;;;;;;;26.12;39.84;95479.13;4994616;28;7257;-37
2024/01/25 08:21:16;;;;;;;;;;;;;;;26.13;39.91;95480.63;4994923;28;7078;-39
2024/01/25 08:23:52;;;;;;;;;;;;;;;26.13;40.07;95491.66;4978317;28;7377;-38
2024/01/25 08:26:44;;;;;;;;;;;;;;;26.14;39.77;95490.41;4978510;28;8739;-39
2024/01/25 08:29:10;;;;;;;;;;;;;;;26.16;39.49;95496.19;4976801;28;9162;-39
2024/01/25 08:31:46;;;;;;;;;;;;;;;26.19;39.69;95496.47;4986569;28;8731;-40
2024/01/25 08:34:30;;;;;;;;;;;;;;;26.19;40.19;95494.47;4975996;28;7247;-39
2024/01/25 08:36:57;;;;;;;;;;;;;;;26.23;39.98;95494.25;4994373;28;8824;-39
2024/01/25 08:40:11;;;;;;;;;;;;;;;26.21;39.51;95491.22;5009104;28;7024;-39
2024/01/25 08:43:01;;;;;;;;;;;;;;;26.23;39.45;95494.25;5034965;28;8212;-39
2024/01/25 08:45:42;;;;;;;;;;;;;;;26.22;39.94;95501.00;5033595;28;7235;-38
2024/01/25 08:48:09;;;;;;;;;;;;;;;26.22;39.37;95498.25;5027581;28;9327;-40
2024/01/25 08:50:38;;;;;;;;;;;;;;;26.21;39.60;95499.50;5037397;28;7078;-38
2024/01/25 08:53:09;;;;;;;;;;;;;;;26.23;39.81;95508.78;5046074;28;8780;-39
2024/01/25 08:56:23;;;;;;;;;;;;;;;26.21;39.90;95514.03;5035232;28;7257;-40
2024/01/25 08:59:04;;;;;;;;;;;;;;;26.20;39.51;95509.00;5018190;28;7191;-41
2024/01/25 09:01:32;;;;;;;;;;;;;;;26.19;40.07;95502.00;5028765;28;9393;-38
2024/01/25 09:04:08;;;;;;;;;;;;;;;26.18;39.84;95495.72;5018323;28;7246;-39
2024/01/25 09:06:35;;;;;;;;;;;;;;;26.23;39.43;95502.53;5025185;28;7123;-39
2024/01/25 09:09:12;;;;;;;;;;;;;;;26.24;40.12;95502.03;5034521;28;7258;-41
2024/01/25 09:11:38;;;;;;;;;;;;;;;26.23;40.12;95508.78;5048063;28;7043;-40
2024/01/25 09:14:14;;;;;;;;;;;;;;;26.24;39.49;95509.53;5036163;28;8800;-39
2024/01/25 09:16:42;;;;;;;;;;;;;;;26.26;39.29;95515.31;5021626;28;6997;-40
2024/01/25 09:19:08;;;;;;;;;;;;;;;26.23;39.93;95506.03;5029673;28;7254;-40
2024/01/25 09:21:34;;;;;;;;;;;;;;;26.24;39.13;95515.06;5038734;28;8800;-39
2024/01/25 09:24:02;;;;;;;;;;;;;;;26.23;39.41;95519.06;5035490;28;9459;-41
2024/01/25 09:26:28;;;;;;;;;;;;;;;26.23;39.81;95524.59;5035340;28;7254;-38
2024/01/25 09:28:54;;;;;;;;;;;;;;;26.23;39.97;95519.81;5034829;28;7380;-40
2024/01/25 09:31:22;;;;;;;;;;;;;;;26.23;40.14;95539.13;5032170;28;7255;-38
2024/01/25 09:33:51;;;;;;;;;;;;;;;26.24;40.31;95531.59;5043014;28;9087;-39
2024/01/25 09:36:17;;;;;;;;;;;;;;;26.24;40.05;95532.38;5042815;28;9433;-38
2024/01/25 09:38:43;;;;;;;;;;;;;;;26.23;39.91;95530.84;5047812;28;9081;-38
2024/01/25 09:41:25;;;;;;;;;;;;;;;26.23;39.25;95525.31;5044330;28;9180;-39
2024/01/25 09:44:20;;;;;;;;;;;;;;;26.23;39.97;95530.84;5037873;28;7408;-39
2024/01/25 09:46:51;;;;;;;;;;;;;;;26.26;39.08;95531.88;5038108;28;9329;-38
2024/01/25 09:49:18;;;;;;;;;;;;;;;26.27;39.64;95525.88;5044989;28;8756;-38
2024/01/25 09:51:52;;;;;;;;;;;;;;;26.24;39.83;95526.84;5042428;28;7017;-38
2024/01/25 09:54:19;;;;;;;;;;;;;;;26.20;39.45;95523.56;5053942;28;8823;-38
2024/01/25 09:56:47;;;;;;;;;;;;;;;26.24;39.67;95531.59;5049538;28;7197;-39
2024/01/25 09:59:24;;;;;;;;;;;;;;;26.23;39.46;95536.34;5039858;28;9416;-38
2024/01/25 10:01:50;;;;;;;;;;;;;;;26.25;39.67;95539.41;5035721;28;9403;-38
2024/01/25 10:04:24;;;;;;;;;;;;;;;26.25;39.72;95542.16;5044865;28;7266;-38
2024/01/25 10:06:56;;;;;;;;;;;;;;;26.27;39.49;95552.72;5035616;28;7116;-38
2024/01/25 10:09:22;;;;;;;;;;;;;;;26.28;39.62;95554.22;5024851;28;7299;-38
2024/01/25 10:12:01;;;;;;;;;;;;;;;26.26;39.46;95546.44;5040419;28;7310;-38
2024/01/25 10:14:33;;;;;;;;;;;;;;;26.23;39.59;95544.63;5041350;28;7248;-38
2024/01/25 10:17:00;;;;;;;;;;;;;;;26.26;39.92;95542.91;5036835;28;7867;-38
2024/01/25 10:19:28;;;;;;;;;;;;;;;26.26;39.21;95545.66;5033178;28;8734;-38
2024/01/25 10:21:56;;;;;;;;;;;;;;;26.25;39.49;95541.41;5037609;28;8223;-38
2024/01/25 10:24:22;;;;;;;;;;;;;;;26.24;39.57;95540.66;5048350;28;7038;-38
2024/01/25 10:26:49;;;;;;;;;;;;;;;26.24;39.64;95537.13;5043534;28;7848;-38
2024/01/25 10:29:15;;;;;;;;;;;;;;;26.23;39.54;95536.34;5040855;28;7911;-38
2024/01/25 10:31:42;;;;;;;;;;;;;;;26.25;39.81;95527.63;5057359;28;7243;-41
2024/01/25 10:34:42;;;;;;;;;;;;;;;26.27;39.87;95531.41;5060493;28;6996;-38
2024/01/25 10:37:20;;;;;;;;;;;;;;;26.27;39.93;95533.41;5048460;28;7009;-39
2024/01/25 10:39:47;;;;;;;;;;;;;;;26.27;39.02;95527.88;5038497;28;7489;-37
2024/01/25 10:42:13;;;;;;;;;;;;;;;26.29;39.30;95526.16;5050957;28;9100;-37
2024/01/25 10:44:39;;;;;;;;;;;;;;;26.29;39.58;95528.16;5057273;28;7002;-37
2024/01/25 10:47:06;;;;;;;;;;;;;;;26.30;39.34;95524.13;5033456;28;7194;-37
2024/01/25 10:49:34;;;;;;;;;;;;;;;26.25;40.14;95520.09;5039676;28;7277;-37
2024/01/25 10:52:01;;;;;;;;;;;;;;;26.30;39.56;95516.63;5041619;28;9037;-37
2024/01/25 10:54:28;;;;;;;;;;;;;;;26.29;39.58;95511.59;5032750;28;7275;-37
2024/01/25 10:57:21;;;;;;;;;;;;;;;26.29;39.43;95501.34;5049690;28;7260;-37
2024/01/25 11:00:09;;;;;;;;;;;;;;;26.30;39.50;95507.59;5046559;28;7322;-37
2024/01/25 11:02:39;;;;;;;;;;;;;;;26.29;39.50;95504.09;5052278;28;9456;-37
2024/01/25 11:05:24;;;;;;;;;;;;;;;26.30;39.91;95507.59;5038202;28;8331;-37
2024/01/25 11:07:51;;;;;;;;;;;;;;;26.29;39.66;95503.34;5038458;28;7121;-37
2024/01/25 11:10:51;;;;;;;;;;;;;;;26.29;39.38;95498.56;5051645;28;7075;-37
2024/01/25 11:13:24;;;;;;;;;;;;;;;26.31;40.08;95498.84;5039426;28;9054;-37
2024/01/25 11:16:34;;;;;;;;;;;;;;;26.30;39.55;95496.56;5022069;28;7443;-37
2024/01/25 11:19:07;;;;;;;;;;;;;;;26.30;39.33;95480.75;5049518;28;7062;-37
2024/01/25 11:21:50;;;;;;;;;;;;;;;26.31;39.16;95487.03;5049017;28;8969;-37
2024/01/25 11:24:46;;;;;;;;;;;;;;;26.32;39.78;95477.53;5046352;28;9120;-37
2024/01/25 11:27:43;;;;;;;;;;;;;;;26.31;39.99;95478.78;5033465;28;9089;-37
2024/01/25 11:30:20;;;;;;;;;;;;;;;26.29;39.52;95465.47;5015117;28;9492;-37
2024/01/25 11:32:50;;;;;;;;;;;;;;;26.31;39.41;95467.75;5018806;28;7197;-37
2024/01/25 11:35:42;;;;;;;;;;;;;;;26.32;39.52;95466.50;5029440;28;8267;-37
2024/01/25 11:38:08;;;;;;;;;;;;;;;26.29;39.81;95459.19;5034608;28;8912;-37
2024/01/25 11:40:44;;;;;;;;;;;;;;;26.31;39.40;95456.72;5028783;28;7309;-37
2024/01/25 11:43:12;;;;;;;;;;;;;;;26.31;40.09;95456.72;5031239;28;7308;-37
2024/01/25 11:45:42;;;;;;;;;;;;;;;26.31;39.84;95453.94;5015750;28;7067;-37
2024/01/25 11:48:47;;;;;;;;;;;;;;;26.34;39.91;95450.22;5016771;28;7279;-37
2024/01/25 11:51:13;;;;;;;;;;;;;;;26.33;39.77;95440.41;5037546;28;8779;-56
2024/01/25 11:53:45;;;;;;;;;;;;;;;26.34;39.75;95439.91;5038526;28;8770;-56
2024/01/25 11:56:33;;;;;;;;;;;;;;;26.35;39.59;95435.16;5037016;28;9389;-56
2024/01/25 11:59:12;;;;;;;;;;;;;;;26.35;39.68;95435.16;5034198;28;7243;-56
2024/01/25 12:01:43;;;;;;;;;;;;;;;26.37;39.65;95441.72;5035038;28;9111;-56
2024/01/25 12:04:10;;;;;;;;;;;;;;;26.35;39.79;95429.66;5046650;28;9174;-56
2024/01/25 12:06:38;;;;;;;;;;;;;;;26.36;39.88;95431.19;5038154;28;9100;-56
2024/01/25 12:09:16;;;;;;;;;;;;;;;26.43;39.69;95438.97;5046598;28;7256;-56
2024/01/25 12:11:56;;;;;;;;;;;;;;;26.41;39.95;95430.44;5036741;28;9381;-56
2024/01/25 12:14:24;;;;;;;;;;;;;;;26.43;40.00;95425.94;5036949;28;8768;-56
2024/01/25 12:17:07;;;;;;;;;;;;;;;26.45;39.71;95425.44;5040348;28;6975;-56
2024/01/25 12:19:34;;;;;;;;;;;;;;;26.41;39.90;95416.66;5043461;28;9211;-56
2024/01/25 12:22:10;;;;;;;;;;;;;;;26.41;39.26;95424.91;5051341;28;9073;-56
2024/01/25 12:24:40;;;;;;;;;;;;;;;26.43;39.63;95425.19;5040078;28;6929;-56
2024/01/25 12:27:23;;;;;;;;;;;;;;;26.42;39.76;95420.94;5038655;28;8883;-56
2024/01/25 12:30:22;;;;;;;;;;;;;;;26.45;39.64;95422.69;5035273;28;7879;-56
2024/01/25 12:33:19;;;;;;;;;;;;;;;26.43;39.68;95412.16;5038243;28;7228;-56
2024/01/25 12:36:05;;;;;;;;;;;;;;;26.41;39.04;95403.63;4991264;28;7248;-56
2024/01/25 12:38:41;;;;;;;;;;;;;;;26.42;39.23;95409.91;4992711;28;7124;-56
2024/01/25 12:41:12;;;;;;;;;;;;;;;26.40;39.32;95398.59;4958618;28;7901;-56
2024/01/25 12:43:40;;;;;;;;;;;;;;;26.38;39.10;95401.81;4963446;28;7758;-56
2024/01/25 12:46:07;;;;;;;;;;;;;;;26.40;39.38;95402.13;4977969;28;7634;-56
2024/01/25 12:48:44;;;;;;;;;;;;;;;26.39;38.67;95400.59;4986553;28;7058;-55
2024/01/25 12:51:10;;;;;;;;;;;;;;;26.39;38.63;95405.34;4973637;28;9148;-56
2024/01/25 12:53:39;;;;;;;;;;;;;;;26.38;38.35;95403.84;4985043;28;7215;-56
2024/01/25 12:56:05;;;;;;;;;;;;;;;26.38;38.54;95398.34;4984983;28;7334;-56
2024/01/25 12:58:40;;;;;;;;;;;;;;;26.34;38.44;95397.81;4970034;28;7068;-56
2024/01/25 13:01:08;;;;;;;;;;;;;;;26.38;38.53;95401.09;4978161;28;7889;-36
2024/01/25 13:03:53;;;;;;;;;;;;;;;26.39;38.46;95395.06;4974943;28;7214;-36
2024/01/25 13:06:27;;;;;;;;;;;;;;;26.37;38.48;95392.06;4973758;28;6952;-36
2024/01/25 13:09:03;;;;;;;;;;;;;;;26.40;38.29;95385.56;4976365;28;7021;-36
2024/01/25 13:12:04;;;;;;;;;;;;;;;26.38;38.81;95382.53;4982956;28;7385;-36
2024/01/25 13:14:54;;;;;;;;;;;;;;;26.39;39.04;95383.28;5016559;28;7271;-36
2024/01/25 13:17:51;;;;;;;;;;;;;;;26.41;38.50;95378.78;4996832;28;7277;-36
2024/01/25 13:20:17;;;;;;;;;;;;;;;26.41;38.51;95376.03;4947435;28;7171;-36
2024/01/25 13:23:03;;;;;;;;;;;;;;;26.41;38.84;95370.50;4961881;28;7304;-36
2024/01/25 13:26:06;;;;;;;;;;;;;;;26.44;39.20;95366.78;4969841;28;7268;-36
2024/01/25 13:28:38;;;;;;;;;;;;;;;26.45;38.59;95365.50;4882262;29;9175;-36
2024/01/25 13:31:20;;;;;;;;;;;;;;;26.45;38.42;95362.00;4889778;29;7410;-36
2024/01/25 13:33:46;;;;;;;;;;;;;;;26.54;38.74;95353.53;4888730;29;9147;-36
2024/01/25 13:36:17;;;;;;;;;;;;;;;26.55;38.13;95344.00;4887499;29;6996;-36
2024/01/25 13:38:51;;;;;;;;;;;;;;;26.56;38.69;95348.25;4872854;29;9079;-36
2024/01/25 13:41:22;;;;;;;;;;;;;;;26.52;38.78;95345.75;4889139;29;8894;-36